Nottingham, Indiana
Current Conditions -  °F | °C
As of 9:01 PM on Sunday 25 Jan 2015 (Local Time) from KMIE Reporting Station
Light Snow Light Snow  
Wind Chill:   Ceiling: 1500
Heat Index: 21°   Visibility: 1mi
Dew Point: 17°   Wind: 17mph
Humidity: 85%   Direction: 60°ENE
Pressure: 29.81"   Gusts: 26mph
Location:  40.5457°N, 85.2546°W
Report Text: KMIE 260201Z 06015G23KT 1SM -SN BR VV015 M06/M08 A2981 RMK AO2 P0000 T10611083
Loading
Personal Weather Stations






























Interactive Weather Map New forecast layout! Learn more

10-Day Weather Forecast

Advertisements
Track Severe Weather on mobile